Time;durP1;ratioP1;P1;durP2;ratioP2;P2;SDS_P1;SDS_P2;PMS_P1;PMS_P2;Temp;Humidity;BMP_temperature;BMP_pressure;BME280_temperature;BME280_humidity;BME280_pressure;Samples;Min_cycle;Max_cycle;Signal;HPM_P1;HPM_P2
2021/12/01 00:01:48;;;;;;;13.85;8.30;;;;;;;8.53;100.00;100017.69;5253990;28;20498;-68
2021/12/01 00:04:19;;;;;;;14.07;7.82;;;;;;;8.53;100.00;100017.69;5248883;28;20198;-69
2021/12/01 00:06:50;;;;;;;13.38;7.82;;;;;;;8.53;100.00;99993.75;5257771;28;20562;-68
2021/12/01 00:09:21;;;;;;;11.13;7.18;;;;;;;8.53;100.00;99992.91;5267288;28;20092;-68
2021/12/01 00:11:53;;;;;;;12.13;7.43;;;;;;;8.54;100.00;99992.81;5270340;28;20234;-69
2021/12/01 00:14:24;;;;;;;10.90;6.93;;;;;;;8.55;100.00;99989.19;5260610;28;20028;-68
2021/12/01 00:16:55;;;;;;;13.50;7.82;;;;;;;8.53;100.00;99982.28;5262130;28;20120;-69
2021/12/01 00:19:29;;;;;;;12.02;7.32;;;;;;;8.53;100.00;99964.50;5261297;28;20462;-69
2021/12/01 00:22:01;;;;;;;11.23;6.90;;;;;;;8.56;100.00;99964.28;5256128;28;20043;-68
2021/12/01 00:24:33;;;;;;;11.52;7.10;;;;;;;8.51;100.00;99944.34;5264628;28;20024;-68
2021/12/01 00:27:04;;;;;;;11.32;6.63;;;;;;;8.52;100.00;99938.06;5262186;28;20094;-69
2021/12/01 00:29:36;;;;;;;11.95;6.88;;;;;;;8.52;100.00;99927.44;5256486;28;20025;-69
2021/12/01 00:32:08;;;;;;;12.25;6.63;;;;;;;8.52;100.00;99922.13;5264619;28;20103;-69
2021/12/01 00:34:39;;;;;;;12.15;6.53;;;;;;;8.50;100.00;99916.09;5260430;28;20159;-68
2021/12/01 00:37:10;;;;;;;11.15;6.75;;;;;;;8.49;100.00;99904.59;5259639;28;20029;-68
2021/12/01 00:39:42;;;;;;;11.25;6.68;;;;;;;8.49;100.00;99904.59;5263422;28;20056;-69
2021/12/01 00:42:13;;;;;;;12.30;6.45;;;;;;;8.49;100.00;99909.06;5259827;28;20063;-68
2021/12/01 00:44:47;;;;;;;10.63;6.63;;;;;;;8.49;100.00;99878.00;5266719;28;20147;-68
2021/12/01 00:47:18;;;;;;;11.13;6.38;;;;;;;8.49;100.00;99885.97;5268276;28;20056;-69
2021/12/01 00:49:50;;;;;;;12.02;6.53;;;;;;;8.48;100.00;99876.34;5259243;28;20030;-68
2021/12/01 00:52:21;;;;;;;12.50;6.97;;;;;;;8.47;100.00;99877.28;5260743;28;20035;-69
2021/12/01 00:54:52;;;;;;;13.10;6.55;;;;;;;8.46;100.00;99864.13;5255847;28;20638;-68
2021/12/01 00:57:23;;;;;;;12.82;6.80;;;;;;;8.47;100.00;99866.66;5266340;28;20698;-69
2021/12/01 00:59:55;;;;;;;13.43;6.80;;;;;;;8.44;100.00;99873.09;5261116;28;20564;-69
2021/12/01 01:02:26;;;;;;;13.38;6.70;;;;;;;8.41;100.00;99861.84;5257439;28;20457;-69
2021/12/01 01:04:57;;;;;;;12.50;6.95;;;;;;;8.41;100.00;99851.19;5262650;28;20457;-68
2021/12/01 01:07:29;;;;;;;11.60;6.50;;;;;;;8.39;100.00;99838.03;5253899;28;20045;-68
2021/12/01 01:10:06;;;;;;;14.20;8.25;;;;;;;8.39;100.00;99838.03;5261952;28;20020;-68
2021/12/01 01:18:17;;;;;;;16.02;8.15;;;;;;;8.37;100.00;99837.31;5259282;28;20033;-69
2021/12/01 01:20:49;;;;;;;16.38;9.40;;;;;;;8.34;100.00;99816.34;5261664;28;20439;-69
2021/12/01 01:23:20;;;;;;;17.13;9.57;;;;;;;8.33;100.00;99819.13;5262892;28;20506;-69
2021/12/01 01:25:51;;;;;;;16.40;9.50;;;;;;;8.32;100.00;99822.72;5261727;28;20024;-69
2021/12/01 01:28:23;;;;;;;19.38;10.40;;;;;;;8.30;100.00;99809.56;5260449;28;20085;-69
2021/12/01 01:30:55;;;;;;;18.48;11.13;;;;;;;8.28;100.00;99794.72;5261981;28;20059;-69
2021/12/01 01:33:26;;;;;;;17.60;10.95;;;;;;;8.27;100.00;99801.03;5259354;28;20131;-68
2021/12/01 01:35:57;;;;;;;18.25;11.27;;;;;;;8.23;100.00;99801.28;5259423;28;20450;-69
2021/12/01 01:38:31;;;;;;;19.23;11.32;;;;;;;8.21;100.00;99797.06;5268603;28;20476;-68
2021/12/01 01:41:06;;;;;;;18.63;11.38;;;;;;;8.18;100.00;99790.19;5264449;28;20032;-69
2021/12/01 01:43:39;;;;;;;16.10;10.73;;;;;;;8.18;100.00;99792.00;5261212;28;20033;-69
2021/12/01 01:46:13;;;;;;;16.83;10.98;;;;;;;8.15;100.00;99786.94;5263662;28;20035;-68
2021/12/01 01:48:53;;;;;;;17.48;10.73;;;;;;;8.12;100.00;99777.41;5261852;28;20064;-68
2021/12/01 01:51:25;;;;;;;17.25;10.35;;;;;;;8.11;100.00;99772.22;5259302;28;20024;-68
2021/12/01 01:53:58;;;;;;;15.07;9.77;;;;;;;8.11;100.00;99780.19;5265699;28;20020;-68
2021/12/01 01:56:29;;;;;;;16.15;10.52;;;;;;;8.09;100.00;99760.88;5263877;28;20025;-68
2021/12/01 01:59:02;;;;;;;13.93;10.48;;;;;;;8.05;100.00;99753.19;5264757;28;20024;-68
2021/12/01 02:01:44;;;;;;;15.25;10.15;;;;;;;8.03;100.00;99748.94;5261902;28;20020;-68
2021/12/01 02:04:18;;;;;;;16.00;9.95;;;;;;;8.03;100.00;99744.50;5262876;28;20024;-68
2021/12/01 02:06:50;;;;;;;;;;;;;;;8.05;100.00;99742.56;5268175;28;20029;-68
2021/12/01 02:09:22;;;;;;;17.77;9.55;;;;;;;8.00;100.00;99728.81;5271677;28;19916;-67
2021/12/01 02:11:57;;;;;;;15.10;9.75;;;;;;;7.97;100.00;99714.94;5271302;28;20040;-67
2021/12/01 02:14:29;;;;;;;15.38;9.65;;;;;;;7.95;100.00;99724.84;5265076;28;20624;-67
2021/12/01 02:17:01;;;;;;;14.93;8.60;;;;;;;7.92;100.00;99704.72;5265878;28;20025;-68
2021/12/01 02:19:36;;;;;;;12.80;8.70;;;;;;;7.93;100.00;99716.16;5265782;28;20027;-68
2021/12/01 02:22:08;;;;;;;12.32;8.35;;;;;;;7.90;100.00;99695.16;5269213;28;20024;-68
2021/12/01 02:24:39;;;;;;;12.68;7.85;;;;;;;7.88;100.00;99692.66;5266751;28;20759;-67
2021/12/01 02:27:12;;;;;;;12.15;8.07;;;;;;;7.89;100.00;99688.19;5269549;28;20032;-68
2021/12/01 02:29:43;;;;;;;10.63;7.22;;;;;;;7.86;100.00;99681.31;5271151;28;20029;-67
2021/12/01 02:32:14;;;;;;;11.70;7.00;;;;;;;7.85;100.00;99676.97;5266701;28;20532;-68
2021/12/01 02:34:46;;;;;;;10.20;6.80;;;;;;;7.83;100.00;99665.66;5261439;28;20111;-68
2021/12/01 02:37:19;;;;;;;9.43;6.40;;;;;;;7.79;100.00;99662.41;5272653;28;20032;-68
2021/12/01 02:39:51;;;;;;;9.13;6.15;;;;;;;7.81;100.00;99656.97;5266259;28;20395;-68
2021/12/01 02:42:22;;;;;;;10.10;6.40;;;;;;;7.78;100.00;99659.88;5265406;28;20043;-68
2021/12/01 02:44:54;;;;;;;9.10;5.88;;;;;;;7.75;100.00;99633.59;5270237;28;20032;-68
2021/12/01 02:47:26;;;;;;;8.63;6.30;;;;;;;7.73;100.00;99627.53;5267653;28;20025;-68
2021/12/01 02:49:57;;;;;;;9.45;5.57;;;;;;;7.71;100.00;99616.22;5271371;28;20027;-68
2021/12/01 02:52:34;;;;;;;9.68;5.97;;;;;;;7.71;100.00;99642.75;5273685;28;20020;-68
2021/12/01 02:55:09;;;;;;;11.48;6.53;;;;;;;7.68;100.00;99617.31;5267183;28;20021;-67
2021/12/01 02:57:52;;;;;;;10.23;6.63;;;;;;;7.66;100.00;99616.59;5264832;28;20029;-67
2021/12/01 03:00:23;;;;;;;11.18;7.15;;;;;;;7.64;100.00;99592.84;5265034;28;20024;-67
2021/12/01 03:02:56;;;;;;;10.48;7.00;;;;;;;7.62;100.00;99588.66;5268233;28;20098;-68
2021/12/01 03:05:27;;;;;;;12.57;7.68;;;;;;;7.58;100.00;99601.34;5266567;28;20375;-67
2021/12/01 03:07:59;;;;;;;11.65;7.75;;;;;;;7.57;100.00;99589.00;5266452;28;20049;-67
2021/12/01 03:10:30;;;;;;;11.93;7.85;;;;;;;7.55;100.00;99585.66;5263574;28;20455;-67
2021/12/01 03:13:02;;;;;;;12.55;7.65;;;;;;;7.53;100.00;99574.31;5265911;28;20087;-67
2021/12/01 03:15:33;;;;;;;10.80;8.07;;;;;;;7.51;100.00;99572.78;5268214;28;20032;-67
2021/12/01 03:18:04;;;;;;;13.70;8.10;;;;;;;7.50;100.00;99565.78;5269606;28;20509;-67
2021/12/01 03:20:36;;;;;;;13.60;8.15;;;;;;;7.49;100.00;99556.16;5268902;28;20040;-67
2021/12/01 03:23:08;;;;;;;14.52;8.13;;;;;;;7.48;100.00;99557.97;5267605;28;20035;-68
2021/12/01 03:25:39;;;;;;;12.95;8.10;;;;;;;7.46;100.00;99543.97;5260538;28;20029;-67
2021/12/01 03:28:11;;;;;;;12.20;8.43;;;;;;;7.44;100.00;99536.16;5262056;28;20449;-67
2021/12/01 03:30:44;;;;;;;12.13;7.85;;;;;;;7.43;100.00;99539.75;5259676;28;20395;-67
2021/12/01 03:33:19;;;;;;;10.95;7.72;;;;;;;7.45;100.00;99529.84;5263235;28;20024;-67
2021/12/01 03:35:52;;;;;;;12.80;8.07;;;;;;;7.42;100.00;99522.16;5253727;28;20627;-67
2021/12/01 03:38:26;;;;;;;12.40;8.20;;;;;;;7.39;100.00;99511.81;5265668;28;20028;-68
2021/12/01 03:40:58;;;;;;;11.32;7.72;;;;;;;7.41;100.00;99511.69;5262623;28;20032;-68
2021/12/01 03:43:30;;;;;;;13.98;9.30;;;;;;;7.38;100.00;99493.34;5259920;28;20540;-67
2021/12/01 03:46:01;;;;;;;14.57;8.48;;;;;;;7.37;100.00;99494.34;5262657;28;20024;-68
2021/12/01 03:48:33;;;;;;;14.15;8.43;;;;;;;7.37;100.00;99494.34;5261236;28;20074;-68
2021/12/01 03:51:04;;;;;;;11.90;8.00;;;;;;;7.36;100.00;99487.34;5270948;28;20039;-68
2021/12/01 03:53:35;;;;;;;11.80;8.18;;;;;;;7.36;100.00;99476.72;5261380;28;20064;-68
2021/12/01 03:56:07;;;;;;;16.70;9.00;;;;;;;7.36;100.00;99463.47;5265601;28;20085;-68
2021/12/01 03:58:38;;;;;;;13.32;8.57;;;;;;;7.35;100.00;99449.34;5264886;28;20390;-67
2021/12/01 04:01:12;;;;;;;12.75;8.55;;;;;;;7.34;100.00;99444.19;5267699;28;20021;-68
2021/12/01 04:03:43;;;;;;;13.05;8.80;;;;;;;7.32;100.00;99430.22;5264697;28;20507;-68
2021/12/01 04:06:15;;;;;;;13.88;9.25;;;;;;;7.29;100.00;99428.66;5260791;28;20394;-68
2021/12/01 04:08:47;;;;;;;13.60;9.40;;;;;;;7.28;100.00;99413.72;5262320;28;20072;-68
2021/12/01 04:11:18;;;;;;;13.10;9.15;;;;;;;7.28;100.00;99412.88;5264960;28;20471;-68
2021/12/01 04:13:51;;;;;;;12.02;8.38;;;;;;;7.27;100.00;99412.03;5260347;28;20494;-67
2021/12/01 04:16:23;;;;;;;13.07;8.43;;;;;;;7.24;100.00;99405.16;5256348;28;20036;-67
2021/12/01 04:18:54;;;;;;;11.68;7.85;;;;;;;7.22;100.00;99401.81;5255949;28;20056;-68
2021/12/01 04:21:27;;;;;;;12.55;7.68;;;;;;;7.22;100.00;99399.16;5253565;28;20482;-68
2021/12/01 04:23:58;;;;;;;11.27;7.93;;;;;;;7.21;100.00;99392.19;5258048;28;20025;-67
2021/12/01 04:26:32;;;;;;;11.43;7.45;;;;;;;7.21;100.00;99386.88;5255263;28;20078;-68
2021/12/01 04:29:05;;;;;;;8.73;6.63;;;;;;;7.22;100.00;99377.09;5260105;28;20033;-68
2021/12/01 04:31:38;;;;;;;10.25;6.57;;;;;;;7.18;100.00;99370.38;5266723;28;20034;-68
2021/12/01 04:34:10;;;;;;;10.27;6.18;;;;;;;7.18;100.00;99370.38;5268257;28;20025;-68
2021/12/01 04:36:43;;;;;;;9.30;6.40;;;;;;;7.13;100.00;99341.59;5254504;28;20133;-67
2021/12/01 04:39:16;;;;;;;8.38;5.80;;;;;;;7.12;100.00;99328.47;5260321;28;20111;-68
2021/12/01 04:41:51;;;;;;;10.18;5.95;;;;;;;7.10;100.00;99325.13;5255639;28;20032;-67
2021/12/01 04:44:25;;;;;;;9.27;5.53;;;;;;;7.08;100.00;99317.28;5258607;28;20063;-67
2021/12/01 04:46:57;;;;;;;8.50;5.22;;;;;;;7.08;100.00;99322.59;5257579;28;20037;-67
2021/12/01 04:49:31;;;;;;;9.35;5.60;;;;;;;7.09;100.00;99308.34;5257399;28;20083;-67
2021/12/01 04:52:03;;;;;;;8.02;5.45;;;;;;;7.04;100.00;99307.94;5265925;28;20032;-67
2021/12/01 04:54:35;;;;;;;8.88;5.22;;;;;;;7.04;100.00;99292.84;5262726;28;20041;-67
2021/12/01 04:57:07;;;;;;;7.97;5.35;;;;;;;7.04;100.00;99294.66;5256527;28;21230;-68
2021/12/01 04:59:38;;;;;;;8.80;5.32;;;;;;;7.05;100.00;99289.22;5254172;28;20031;-68
2021/12/01 05:02:09;;;;;;;9.35;5.78;;;;;;;7.05;100.00;99291.03;5261474;28;20809;-67
2021/12/01 05:04:41;;;;;;;9.10;5.55;;;;;;;7.05;100.00;99289.22;5260531;28;20486;-67
2021/12/01 05:07:13;;;;;;;10.55;5.40;;;;;;;7.02;100.00;99270.94;5254469;28;20109;-68
2021/12/01 05:09:44;;;;;;;9.63;5.35;;;;;;;7.00;100.00;99262.28;5253624;28;20024;-67
2021/12/01 05:12:16;;;;;;;9.48;5.45;;;;;;;7.00;100.00;99272.88;5256025;28;20475;-68
2021/12/01 05:14:47;;;;;;;10.13;5.97;;;;;;;6.99;100.00;99273.00;5254452;28;20619;-68
2021/12/01 05:17:20;;;;;;;9.52;5.22;;;;;;;6.98;100.00;99255.41;5265510;28;20060;-67
2021/12/01 05:19:51;;;;;;;8.05;5.07;;;;;;;6.98;100.00;99255.41;5255458;28;20060;-68
2021/12/01 05:22:23;;;;;;;9.02;5.38;;;;;;;6.95;100.00;99253.03;5256311;28;20032;-68
2021/12/01 05:24:54;;;;;;;7.63;5.00;;;;;;;6.95;100.00;99255.69;5265882;28;20036;-68
2021/12/01 05:27:25;;;;;;;9.50;4.65;;;;;;;6.96;100.00;99250.25;5266628;28;20025;-68
2021/12/01 05:29:57;;;;;;;9.18;4.68;;;;;;;6.94;100.00;99238.09;5264562;28;20362;-68
2021/12/01 05:32:30;;;;;;;7.00;4.40;;;;;;;6.93;100.00;99244.38;5265945;28;20110;-68
2021/12/01 05:35:02;;;;;;;6.90;4.30;;;;;;;6.92;100.00;99243.53;5263518;28;20063;-68
2021/12/01 05:37:33;;;;;;;7.88;3.97;;;;;;;6.90;100.00;99244.63;5261644;28;20119;-68
2021/12/01 05:40:05;;;;;;;7.38;4.63;;;;;;;6.91;100.00;99243.69;5266211;28;20068;-68
2021/12/01 05:42:36;;;;;;;5.95;3.53;;;;;;;6.90;100.00;99226.06;5261057;28;20151;-68
2021/12/01 05:45:08;;;;;;;5.40;3.78;;;;;;;6.89;100.00;99246.47;5262854;28;20112;-68
2021/12/01 05:47:39;;;;;;;7.55;3.90;;;;;;;6.88;100.00;99223.56;5262318;28;20033;-68
2021/12/01 05:50:11;;;;;;;5.22;3.60;;;;;;;6.86;100.00;99194.56;5269769;28;20103;-67
2021/12/01 05:52:43;;;;;;;5.38;3.13;;;;;;;6.90;100.00;99212.81;5257858;28;20060;-68
2021/12/01 05:55:14;;;;;;;5.55;3.00;;;;;;;6.87;100.00;99204.16;5267916;28;20103;-69
2021/12/01 05:57:45;;;;;;;5.75;3.53;;;;;;;6.87;100.00;99203.34;5266807;28;20032;-68
2021/12/01 06:00:17;;;;;;;5.40;2.78;;;;;;;6.86;100.00;99191.91;5268979;28;20067;-67
2021/12/01 06:02:51;;;;;;;6.38;3.17;;;;;;;6.86;100.00;99181.28;5265410;28;20035;-68
2021/12/01 06:05:22;;;;;;;5.55;3.05;;;;;;;6.87;100.00;99182.13;5263326;28;20382;-69
2021/12/01 06:07:53;;;;;;;4.88;2.92;;;;;;;6.86;100.00;99169.84;5270791;28;20051;-69
2021/12/01 06:10:25;;;;;;;5.82;3.00;;;;;;;6.87;100.00;99168.88;5264249;28;20135;-68
2021/12/01 06:12:56;;;;;;;4.93;2.80;;;;;;;6.87;100.00;99151.16;5258347;28;20083;-68
2021/12/01 06:15:31;;;;;;;4.85;2.88;;;;;;;6.84;100.00;99154.06;5265591;28;20048;-68
2021/12/01 06:18:02;;;;;;;6.07;2.90;;;;;;;6.87;100.00;99129.94;5266852;28;20573;-69
2021/12/01 06:20:34;;;;;;;5.10;2.85;;;;;;;6.85;100.00;99146.97;5263045;28;20028;-68
2021/12/01 06:23:05;;;;;;;5.65;3.20;;;;;;;6.88;100.00;99138.72;5262688;28;20425;-69
2021/12/01 06:25:37;;;;;;;6.82;3.20;;;;;;;6.86;100.00;99130.94;5267775;28;20028;-68
2021/12/01 06:28:08;;;;;;;5.38;3.03;;;;;;;6.86;100.00;99130.94;5266518;28;20559;-68
2021/12/01 06:30:40;;;;;;;6.28;3.70;;;;;;;6.87;100.00;99123.81;5265852;28;20032;-68
2021/12/01 06:33:11;;;;;;;6.55;3.35;;;;;;;6.89;100.00;99108.59;5265357;28;20043;-69
2021/12/01 06:35:48;;;;;;;5.13;3.53;;;;;;;6.90;100.00;99098.81;5267603;28;20032;-68
2021/12/01 06:38:19;;;;;;;5.85;3.38;;;;;;;6.91;100.00;99116.41;5264929;28;20037;-68
2021/12/01 06:40:51;;;;;;;5.45;3.40;;;;;;;6.91;100.00;99119.06;5268054;28;20547;-68
2021/12/01 06:43:22;;;;;;;4.85;3.35;;;;;;;6.91;100.00;99101.34;5270232;28;20432;-68
2021/12/01 06:45:53;;;;;;;6.20;3.92;;;;;;;6.90;100.00;99097.00;5264671;28;20051;-68
2021/12/01 06:48:25;;;;;;;6.03;3.80;;;;;;;6.91;100.00;99090.75;5270076;28;20474;-68
2021/12/01 06:50:56;;;;;;;6.30;3.63;;;;;;;6.92;100.00;99088.91;5267006;28;20544;-69
2021/12/01 06:53:29;;;;;;;5.57;3.58;;;;;;;6.94;100.00;99092.28;5271501;28;20032;-69
2021/12/01 06:56:00;;;;;;;7.43;4.10;;;;;;;6.93;100.00;99095.91;5269366;28;20067;-68
2021/12/01 06:58:32;;;;;;;6.28;4.22;;;;;;;6.95;100.00;99093.97;5267179;28;20147;-68
2021/12/01 07:01:06;;;;;;;7.60;4.65;;;;;;;6.96;100.00;99077.06;5267477;28;20036;-68
2021/12/01 07:03:38;;;;;;;8.07;4.80;;;;;;;6.96;100.00;99079.72;5269038;28;20029;-68
2021/12/01 07:06:10;;;;;;;7.72;4.80;;;;;;;6.98;100.00;99083.06;5269992;28;20040;-68
2021/12/01 07:08:41;;;;;;;8.65;4.97;;;;;;;6.99;100.00;99071.50;5260830;28;20444;-68
2021/12/01 07:11:13;;;;;;;8.02;5.03;;;;;;;7.00;100.00;99070.50;5267478;28;20045;-68
2021/12/01 07:13:44;;;;;;;7.95;5.30;;;;;;;7.02;100.00;99065.91;5271738;28;20070;-68
2021/12/01 07:16:16;;;;;;;8.38;5.90;;;;;;;7.02;100.00;99074.72;5270302;28;20125;-68
2021/12/01 07:18:47;;;;;;;9.73;5.85;;;;;;;7.04;100.00;99066.63;5274641;28;20024;-68
2021/12/01 07:21:18;;;;;;;8.93;5.93;;;;;;;7.06;100.00;99069.97;5265428;28;20037;-68
2021/12/01 07:23:50;;;;;;;11.63;6.50;;;;;;;7.07;100.00;99051.25;5269286;28;20474;-68
2021/12/01 07:26:21;;;;;;;11.27;6.07;;;;;;;7.10;100.00;99068.72;5268678;28;20443;-69
2021/12/01 07:28:52;;;;;;;10.43;6.60;;;;;;;7.12;100.00;99057.97;5265167;28;20033;-68
2021/12/01 07:31:24;;;;;;;11.77;6.45;;;;;;;7.14;100.00;99063.97;5269195;28;20089;-68
2021/12/01 07:33:55;;;;;;;11.15;6.75;;;;;;;7.13;100.00;99054.31;5267541;28;20033;-68
2021/12/01 07:36:26;;;;;;;11.70;7.28;;;;;;;7.14;100.00;99063.97;5267438;28;20017;-69
2021/12/01 07:38:59;;;;;;;10.80;6.80;;;;;;;7.16;100.00;99065.50;5269042;28;20516;-68
2021/12/01 07:41:31;;;;;;;13.35;7.20;;;;;;;7.17;100.00;99063.66;5269859;28;20130;-68
2021/12/01 07:44:02;;;;;;;12.90;7.05;;;;;;;7.18;100.00;99062.72;5265730;28;20485;-68
2021/12/01 07:46:33;;;;;;;11.40;6.93;;;;;;;7.20;100.00;99063.41;5268225;28;20250;-68
2021/12/01 07:49:05;;;;;;;11.85;6.97;;;;;;;7.21;100.00;99063.28;5271475;28;20032;-68
2021/12/01 07:51:36;;;;;;;11.85;7.28;;;;;;;7.23;100.00;99060.47;5270344;28;20056;-68
2021/12/01 07:54:08;;;;;;;13.88;7.80;;;;;;;7.25;100.00;99039.97;5265857;28;20067;-68
2021/12/01 07:56:39;;;;;;;13.60;7.65;;;;;;;7.25;100.00;99042.59;5264168;28;20025;-68
2021/12/01 07:59:14;;;;;;;12.05;7.28;;;;;;;7.27;100.00;99024.75;5267150;28;20063;-68
2021/12/01 08:01:46;;;;;;;12.30;7.30;;;;;;;7.26;100.00;99026.53;5266877;28;20078;-67
2021/12/01 08:04:17;;;;;;;11.15;6.30;;;;;;;7.30;100.00;99026.25;5262915;28;20025;-68
2021/12/01 08:06:48;;;;;;;9.43;6.05;;;;;;;7.31;100.00;99027.94;5266830;28;21341;-68
2021/12/01 08:09:20;;;;;;;10.05;6.03;;;;;;;7.33;100.00;99023.34;5265955;28;20075;-68
2021/12/01 08:11:52;;;;;;;11.02;6.65;;;;;;;7.32;100.00;99013.69;5268717;28;20032;-67
2021/12/01 08:14:24;;;;;;;10.95;6.75;;;;;;;7.38;100.00;99015.78;5265764;28;20039;-68
2021/12/01 08:16:55;;;;;;;11.18;6.28;;;;;;;7.38;100.00;99021.06;5269508;28;20025;-68
2021/12/01 08:19:26;;;;;;;12.00;7.35;;;;;;;7.39;100.00;99020.09;5272408;28;20081;-68
2021/12/01 08:21:58;;;;;;;11.57;7.03;;;;;;;7.42;100.00;99018.00;5270598;28;20048;-68
2021/12/01 08:24:32;;;;;;;12.60;7.75;;;;;;;7.43;100.00;99013.53;5265169;28;20037;-68
2021/12/01 08:27:03;;;;;;;14.55;7.82;;;;;;;7.43;100.00;99011.72;5258746;28;20463;-68
2021/12/01 08:29:35;;;;;;;15.00;8.00;;;;;;;7.46;100.00;99018.56;5267108;28;20040;-68
2021/12/01 08:32:06;;;;;;;12.90;7.88;;;;;;;7.44;100.00;99008.09;5264951;28;20020;-68
2021/12/01 08:34:37;;;;;;;11.50;7.55;;;;;;;7.44;100.00;99015.19;5263054;28;20032;-67
2021/12/01 08:37:10;;;;;;;11.77;7.40;;;;;;;7.48;100.00;99000.69;5260841;28;20383;-68
2021/12/01 08:39:42;;;;;;;13.10;7.90;;;;;;;7.48;100.00;99011.31;5256710;28;20029;-68
2021/12/01 08:42:13;;;;;;;12.38;7.38;;;;;;;7.51;100.00;98989.78;5266949;28;20478;-67
2021/12/01 08:44:46;;;;;;;10.27;6.90;;;;;;;7.57;100.00;98996.31;5264162;28;20395;-68
2021/12/01 08:47:21;;;;;;;11.93;6.83;;;;;;;7.62;100.00;98992.25;5272167;28;20471;-68
2021/12/01 08:49:52;;;;;;;9.52;6.15;;;;;;;7.70;100.00;98993.34;5262731;28;20327;-69
2021/12/01 08:52:24;;;;;;;10.25;6.65;;;;;;;7.74;100.00;98987.59;5264556;28;20028;-68
2021/12/01 08:54:56;;;;;;;11.52;6.07;;;;;;;7.79;100.00;98992.50;5258865;28;20033;-68
2021/12/01 08:57:27;;;;;;;9.95;6.30;;;;;;;7.83;100.00;98992.03;5264985;28;20033;-68
2021/12/01 08:59:58;;;;;;;10.35;6.07;;;;;;;7.88;100.00;98985.47;5264227;28;20067;-68
2021/12/01 09:02:29;;;;;;;11.02;6.10;;;;;;;7.94;100.00;98987.53;5265776;28;20035;-68
2021/12/01 09:05:01;;;;;;;8.55;5.60;;;;;;;7.96;100.00;98988.25;5262719;28;20421;-69
2021/12/01 09:07:32;;;;;;;8.10;4.85;;;;;;;7.91;100.00;98991.31;5263645;28;20479;-68
2021/12/01 09:10:05;;;;;;;6.88;4.50;;;;;;;7.86;100.00;98990.91;5273328;28;20032;-68
2021/12/01 09:12:38;;;;;;;8.32;4.80;;;;;;;7.85;100.00;98984.78;5270530;28;20036;-68
2021/12/01 09:15:09;;;;;;;5.65;3.92;;;;;;;7.80;100.00;98988.84;5272028;28;20056;-67
2021/12/01 09:17:41;;;;;;;6.93;4.28;;;;;;;7.81;100.00;98987.88;5264539;28;20517;-68
2021/12/01 09:20:12;;;;;;;6.75;4.13;;;;;;;7.78;100.00;98991.63;5265191;28;20139;-68
2021/12/01 09:22:44;;;;;;;6.03;3.60;;;;;;;7.77;100.00;98994.47;5268128;28;20451;-68
2021/12/01 09:25:16;;;;;;;6.32;3.55;;;;;;;7.81;100.00;98998.50;5270436;28;20032;-68
2021/12/01 09:27:49;;;;;;;8.00;3.63;;;;;;;7.80;100.00;98991.50;5268702;28;20024;-69
2021/12/01 09:30:20;;;;;;;5.45;3.50;;;;;;;7.77;100.00;98991.81;5274264;28;20475;-68
2021/12/01 09:32:51;;;;;;;7.40;3.67;;;;;;;7.78;100.00;99006.72;5267592;28;20029;-68
2021/12/01 09:35:23;;;;;;;8.88;4.00;;;;;;;7.77;100.00;99010.38;5272909;28;20028;-69
2021/12/01 09:37:54;;;;;;;9.40;4.00;;;;;;;7.75;100.00;99012.34;5269779;28;20078;-68
2021/12/01 09:40:26;;;;;;;7.03;4.50;;;;;;;7.74;100.00;99029.25;5266266;28;20036;-69
2021/12/01 09:42:58;;;;;;;8.13;3.90;;;;;;;7.68;100.00;99027.19;5262901;28;20033;-69
2021/12/01 09:45:30;;;;;;;6.93;3.80;;;;;;;7.56;100.00;99024.69;5268620;28;20123;-70
2021/12/01 09:48:02;;;;;;;7.63;3.50;;;;;;;7.52;100.00;99025.94;5265803;28;20024;-68
2021/12/01 09:50:34;;;;;;;7.20;4.10;;;;;;;7.49;100.00;99034.19;5268084;28;20513;-70
2021/12/01 09:53:05;;;;;;;7.50;3.50;;;;;;;7.46;100.00;99026.53;5258235;28;20546;-69
2021/12/01 09:55:40;;;;;;;13.40;3.88;;;;;;;7.45;100.00;99024.84;5264378;28;20086;-68
2021/12/01 09:58:20;;;;;;;10.70;4.10;;;;;;;7.40;100.00;99029.72;5269016;28;20294;-68
2021/12/01 10:00:55;;;;;;;9.27;4.05;;;;;;;7.42;100.00;99022.47;5263204;28;20256;-69
2021/12/01 10:03:27;;;;;;;13.07;4.38;;;;;;;7.37;100.00;99024.72;5276159;28;20107;-68
2021/12/01 10:06:07;;;;;;;11.90;3.60;;;;;;;7.33;100.00;99024.16;5262260;28;20028;-68
2021/12/01 10:08:43;;;;;;;8.93;3.60;;;;;;;7.39;100.00;99022.75;5271723;28;20056;-68
2021/12/01 10:11:17;;;;;;;14.45;3.75;;;;;;;7.37;100.00;99024.72;5267886;28;20029;-68
2021/12/01 10:14:12;;;;;;;16.77;3.67;;;;;;;7.33;100.00;99026.00;5274423;28;20386;-68
2021/12/01 10:16:45;;;;;;;13.93;3.22;;;;;;;7.29;100.00;99022.78;5266079;28;20402;-68
2021/12/01 10:19:17;;;;;;;10.30;2.45;;;;;;;7.23;100.00;99032.13;5266535;28;20063;-68
2021/12/01 10:21:51;;;;;;;12.90;2.58;;;;;;;7.20;100.00;99013.84;5268607;28;20089;-68
2021/12/01 10:24:24;;;;;;;15.73;2.77;;;;;;;7.13;100.00;99027.81;5265147;28;20039;-68
2021/12/01 10:27:04;;;;;;;10.03;2.63;;;;;;;7.06;100.00;99022.25;5263254;28;20377;-68
2021/12/01 10:29:48;;;;;;;13.32;2.42;;;;;;;6.94;100.00;99020.69;5271826;28;20025;-68
2021/12/01 10:32:20;;;;;;;;;;;;;;;6.90;100.00;99029.91;5277494;28;20048;-68
2021/12/01 10:34:56;;;;;;;10.43;2.00;;;;;;;6.93;100.00;99032.28;5264810;28;19955;-68
2021/12/01 10:37:30;;;;;;;14.88;2.83;;;;;;;6.96;100.00;99021.38;5268014;28;20020;-68
2021/12/01 10:40:10;;;;;;;12.05;1.95;;;;;;;6.91;100.00;99023.63;5269746;28;20456;-68
2021/12/01 10:42:59;;;;;;;7.38;1.67;;;;;;;6.89;100.00;99020.28;5274713;28;20045;-68
2021/12/01 10:45:39;;;;;;;10.73;1.45;;;;;;;6.80;100.00;99014.81;5273773;28;20032;-68
2021/12/01 10:48:19;;;;;;;10.50;1.33;;;;;;;6.74;100.00;99006.59;5268592;28;20024;-68
2021/12/01 10:50:52;;;;;;;11.93;2.10;;;;;;;6.73;100.00;99018.16;5265301;28;20033;-68
2021/12/01 10:53:23;;;;;;;7.93;1.63;;;;;;;6.75;100.00;99011.75;5261624;28;20470;-67
2021/12/01 10:55:58;;;;;;;7.97;1.70;;;;;;;6.86;100.00;99001.03;5271590;28;20021;-67
2021/12/01 10:58:38;;;;;;;6.75;1.20;;;;;;;6.88;100.00;99003.50;5269909;28;20021;-67
2021/12/01 11:01:23;;;;;;;9.70;1.40;;;;;;;6.98;100.00;99007.03;5269389;28;20025;-68
2021/12/01 11:03:54;;;;;;;7.40;1.30;;;;;;;7.00;100.00;99001.56;5276621;28;20052;-68
2021/12/01 11:06:27;;;;;;;6.93;1.35;;;;;;;7.01;100.00;99004.06;5276976;28;20061;-68
2021/12/01 11:08:58;;;;;;;8.88;1.25;;;;;;;7.01;100.00;99006.72;5260427;28;20057;-68
2021/12/01 11:11:50;;;;;;;10.07;1.65;;;;;;;6.96;100.00;99019.59;5273923;28;20077;-67
2021/12/01 11:14:22;;;;;;;6.93;1.38;;;;;;;6.95;100.00;99027.69;5273964;28;20081;-68
2021/12/01 11:16:53;;;;;;;5.07;0.93;;;;;;;6.89;100.00;99030.88;5274104;28;20429;-68
2021/12/01 11:19:33;;;;;;;4.80;1.02;;;;;;;6.85;100.00;99035.63;5265665;28;20020;-68
2021/12/01 11:22:27;;;;;;;8.88;1.20;;;;;;;6.81;100.00;99043.00;5260565;28;20032;-68
2021/12/01 11:25:24;;;;;;;6.30;1.13;;;;;;;6.84;100.00;99032.13;5273679;28;20458;-67
2021/12/01 11:27:55;;;;;;;7.53;1.15;;;;;;;6.83;100.00;99032.28;5267390;28;20039;-68
2021/12/01 11:30:27;;;;;;;5.30;1.00;;;;;;;6.82;100.00;99034.06;5262031;28;20020;-68
2021/12/01 11:32:59;;;;;;;8.70;1.45;;;;;;;6.85;100.00;99032.97;5263255;28;20028;-67
2021/12/01 11:35:30;;;;;;;7.75;1.15;;;;;;;6.84;100.00;99029.47;5269290;28;20024;-68
2021/12/01 11:38:02;;;;;;;8.13;1.50;;;;;;;6.86;100.00;99031.97;5269666;28;20429;-67
2021/12/01 11:40:33;;;;;;;7.57;1.42;;;;;;;6.83;100.00;99025.16;5270332;28;20067;-67
2021/12/01 11:43:08;;;;;;;8.93;1.63;;;;;;;6.93;100.00;99019.84;5270659;28;20076;-67
2021/12/01 11:45:42;;;;;;;7.57;1.40;;;;;;;6.92;100.00;99022.63;5267671;28;20162;-67
2021/12/01 11:48:16;;;;;;;9.10;1.48;;;;;;;6.95;100.00;99015.25;5262175;28;20181;-68
2021/12/01 11:51:11;;;;;;;8.65;1.35;;;;;;;7.01;100.00;99009.38;5268329;28;20059;-67
2021/12/01 11:53:47;;;;;;;8.90;1.92;;;;;;;7.02;100.00;99012.88;5276374;28;20374;-67
2021/12/01 11:56:25;;;;;;;7.07;1.20;;;;;;;7.04;100.00;99013.59;5269630;28;20020;-67
2021/12/01 11:59:02;;;;;;;8.48;1.02;;;;;;;7.07;100.00;99007.97;5264671;28;20131;-67
2021/12/01 12:01:36;;;;;;;9.13;1.13;;;;;;;7.07;100.00;99014.13;5270872;28;20512;-67